Time;durP1;ratioP1;P1;durP2;ratioP2;P2;SDS_P1;SDS_P2;PMS_P1;PMS_P2;Temp;Humidity;BMP_temperature;BMP_pressure;BME280_temperature;BME280_humidity;BME280_pressure;Samples;Min_cycle;Max_cycle;Signal;HPM_P1;HPM_P2
2022/07/02 00:00:42;;;;;;;3.97;1.45;;;21.10;99.90;;;;;;4857370;29;20038;-78
2022/07/02 00:03:14;;;;;;;4.35;1.30;;;21.10;99.90;;;;;;4834863;29;20045;-77
2022/07/02 00:05:47;;;;;;;3.85;1.40;;;21.10;99.90;;;;;;4858858;29;20509;-78
2022/07/02 00:08:16;;;;;;;6.60;1.50;;;21.00;99.90;;;;;;4857515;29;20072;-79
2022/07/02 00:10:45;;;;;;;4.68;1.30;;;21.00;99.90;;;;;;4855940;29;20502;-78
2022/07/02 00:13:10;;;;;;;6.28;1.33;;;21.10;99.90;;;;;;4852128;29;20041;-84
2022/07/02 00:15:38;;;;;;;5.25;1.30;;;21.10;99.90;;;;;;4861015;29;20168;-78
2022/07/02 00:18:05;;;;;;;3.83;1.20;;;21.10;99.90;;;;;;4851149;29;20045;-83
2022/07/02 00:20:31;;;;;;;7.15;1.50;;;21.00;99.90;;;;;;4853839;29;20046;-78
2022/07/02 00:22:57;;;;;;;4.00;1.20;;;20.90;99.90;;;;;;4842275;29;20489;-82
2022/07/02 00:25:25;;;;;;;8.88;1.48;;;20.90;99.90;;;;;;4855550;29;20045;-80
2022/07/02 00:27:52;;;;;;;5.45;1.50;;;21.00;99.90;;;;;;4856019;29;20113;-81
2022/07/02 00:30:19;;;;;;;6.78;1.23;;;21.00;99.90;;;;;;4854422;29;20034;-77
2022/07/02 00:32:46;;;;;;;3.67;1.10;;;21.00;99.90;;;;;;4854646;29;20072;-79
2022/07/02 00:35:14;;;;;;;6.57;1.30;;;21.10;99.90;;;;;;4852642;29;20030;-76
2022/07/02 00:37:41;;;;;;;6.85;1.48;;;21.10;99.90;;;;;;4848318;29;20097;-77
2022/07/02 00:40:07;;;;;;;4.13;1.27;;;21.10;99.90;;;;;;4851779;29;20038;-77
2022/07/02 00:42:36;;;;;;;5.20;1.50;;;21.10;99.90;;;;;;4852666;29;20037;-82
2022/07/02 00:45:02;;;;;;;5.80;1.40;;;21.20;99.90;;;;;;4854405;29;20049;-80
2022/07/02 00:47:33;;;;;;;3.10;1.10;;;21.10;99.90;;;;;;4853059;29;20037;-79
2022/07/02 00:50:04;;;;;;;7.35;1.52;;;21.00;99.90;;;;;;4859444;29;20181;-78
2022/07/02 00:52:29;;;;;;;3.28;1.13;;;21.00;99.90;;;;;;4851664;29;20197;-80
2022/07/02 00:54:55;;;;;;;8.82;1.70;;;20.90;99.90;;;;;;4857406;29;20044;-78
2022/07/02 00:57:21;;;;;;;6.40;1.40;;;20.90;99.90;;;;;;4855049;29;20147;-77
2022/07/02 00:59:47;;;;;;;6.22;1.25;;;20.90;99.90;;;;;;4851992;29;20475;-79
2022/07/02 01:02:15;;;;;;;5.95;1.40;;;20.90;99.90;;;;;;4831482;29;20100;-83
2022/07/02 01:04:43;;;;;;;8.52;1.85;;;20.90;99.90;;;;;;4850975;29;20040;-80
2022/07/02 01:07:12;;;;;;;8.18;1.40;;;20.90;99.90;;;;;;4852855;29;20073;-77
2022/07/02 01:12:25;;;;;;;5.90;1.63;;;20.90;99.90;;;;;;4852047;29;20373;-79
2022/07/02 01:14:52;;;;;;;9.77;1.67;;;21.00;99.90;;;;;;4855587;29;20386;-76
2022/07/02 01:17:18;;;;;;;4.13;1.50;;;21.00;99.90;;;;;;4852279;29;20078;-79
2022/07/02 01:19:44;;;;;;;6.50;1.80;;;21.10;99.90;;;;;;4852800;29;20117;-78
2022/07/02 01:22:21;;;;;;;3.42;1.25;;;21.10;99.90;;;;;;4852663;29;20408;-77
2022/07/02 01:24:49;;;;;;;5.43;1.30;;;21.10;99.90;;;;;;4853506;29;20571;-77
2022/07/02 01:27:16;;;;;;;7.85;1.73;;;21.10;99.90;;;;;;4852182;29;20037;-78
2022/07/02 01:29:42;;;;;;;5.97;1.60;;;21.00;99.90;;;;;;4825491;29;20057;-82
2022/07/02 01:32:08;;;;;;;6.32;1.60;;;21.00;99.90;;;;;;4854154;29;20080;-83
2022/07/02 01:34:42;;;;;;;4.72;1.70;;;20.90;99.90;;;;;;4855544;29;20041;-77
2022/07/02 01:37:13;;;;;;;5.78;1.63;;;20.90;99.90;;;;;;4852614;29;20105;-77
2022/07/02 01:39:40;;;;;;;4.43;1.58;;;20.90;99.90;;;;;;4851334;29;20136;-82
2022/07/02 01:42:07;;;;;;;6.88;1.58;;;21.00;99.90;;;;;;4851773;29;20122;-77
2022/07/02 01:44:36;;;;;;;6.57;1.60;;;21.10;99.90;;;;;;4836445;29;20073;-80
2022/07/02 01:47:05;;;;;;;4.45;1.50;;;21.10;99.90;;;;;;4853444;29;20045;-81
2022/07/02 01:49:31;;;;;;;9.07;1.92;;;21.10;99.90;;;;;;4853264;29;20423;-78
2022/07/02 01:51:57;;;;;;;4.55;1.60;;;21.10;99.90;;;;;;4867020;29;20461;-82
2022/07/02 01:54:23;;;;;;;5.05;1.80;;;21.10;99.90;;;;;;4837955;29;20053;-77
2022/07/02 01:56:50;;;;;;;6.28;1.70;;;21.10;99.90;;;;;;4856961;29;20033;-78
2022/07/02 01:59:16;;;;;;;6.78;1.70;;;21.10;99.90;;;;;;4855698;29;20045;-84
2022/07/02 02:01:43;;;;;;;4.60;1.70;;;21.00;99.90;;;;;;4851872;29;20097;-79
2022/07/02 02:04:10;;;;;;;5.07;1.70;;;21.00;99.90;;;;;;4854049;29;20521;-80
2022/07/02 02:06:37;;;;;;;8.32;2.08;;;21.00;99.90;;;;;;4852821;29;20034;-76
2022/07/02 02:09:04;;;;;;;5.68;1.77;;;21.00;99.90;;;;;;4847469;29;20104;-81
2022/07/02 02:11:30;;;;;;;14.30;2.53;;;21.00;99.90;;;;;;4846587;29;20042;-77
2022/07/02 02:13:58;;;;;;;8.27;1.83;;;20.90;99.90;;;;;;4857229;29;20037;-79
2022/07/02 02:16:27;;;;;;;5.97;1.90;;;21.00;99.90;;;;;;4850512;29;20514;-77
2022/07/02 02:18:56;;;;;;;7.70;1.88;;;21.00;99.90;;;;;;4848619;29;20034;-78
2022/07/02 02:21:26;;;;;;;6.03;1.63;;;21.00;99.90;;;;;;4857121;29;22224;-77
2022/07/02 02:23:53;;;;;;;6.05;1.75;;;20.90;99.90;;;;;;4852358;29;20041;-78
2022/07/02 02:26:20;;;;;;;5.78;1.70;;;20.90;99.90;;;;;;4851146;29;20038;-82
2022/07/02 02:28:46;;;;;;;7.50;1.42;;;20.90;99.90;;;;;;4838480;29;20034;-78
2022/07/02 02:31:12;;;;;;;5.88;1.70;;;20.90;99.90;;;;;;4856760;29;20378;-78
2022/07/02 02:33:37;;;;;;;6.57;1.95;;;20.90;99.90;;;;;;4860186;29;20090;-83
2022/07/02 02:36:04;;;;;;;10.88;1.90;;;20.90;99.90;;;;;;4856243;29;20062;-81
2022/07/02 02:38:30;;;;;;;6.43;1.90;;;21.00;99.90;;;;;;4854957;29;20041;-77
2022/07/02 02:40:56;;;;;;;6.45;1.92;;;21.00;99.90;;;;;;4852138;29;20045;-82
2022/07/02 02:43:24;;;;;;;6.40;2.13;;;21.10;99.90;;;;;;4854325;29;20056;-82
2022/07/02 02:45:50;;;;;;;4.53;1.63;;;21.00;99.90;;;;;;4851400;29;20506;-79
2022/07/02 02:48:16;;;;;;;7.90;1.88;;;21.00;99.90;;;;;;4861546;29;20045;-81
2022/07/02 02:50:42;;;;;;;6.80;1.75;;;21.00;99.90;;;;;;4859249;29;20030;-78
2022/07/02 02:53:08;;;;;;;5.30;2.05;;;21.00;99.90;;;;;;4858033;29;20110;-81
2022/07/02 02:55:34;;;;;;;5.97;1.85;;;21.10;99.90;;;;;;4850701;29;20038;-81
2022/07/02 02:58:01;;;;;;;6.50;2.03;;;21.10;99.90;;;;;;4850235;29;20111;-78
2022/07/02 03:00:27;;;;;;;5.28;2.00;;;21.10;99.90;;;;;;4850940;29;20071;-79
2022/07/02 03:02:53;;;;;;;9.95;1.80;;;21.00;99.90;;;;;;4856014;29;20083;-81
2022/07/02 03:05:20;;;;;;;8.43;2.30;;;21.00;99.90;;;;;;4854955;29;20581;-78
2022/07/02 03:07:47;;;;;;;5.80;2.00;;;21.00;99.90;;;;;;4852289;29;20121;-82
2022/07/02 03:10:12;;;;;;;7.80;1.95;;;20.90;99.90;;;;;;4853588;29;20052;-78
2022/07/02 03:12:38;;;;;;;8.68;2.08;;;20.90;99.90;;;;;;4855686;29;20109;-77
2022/07/02 03:15:06;;;;;;;8.52;2.10;;;20.90;99.90;;;;;;4852544;29;20069;-79
2022/07/02 03:17:33;;;;;;;9.32;2.15;;;21.00;99.90;;;;;;4857402;29;20062;-77
2022/07/02 03:19:59;;;;;;;9.57;1.83;;;21.10;99.90;;;;;;4852494;29;20142;-82
2022/07/02 03:22:25;;;;;;;6.97;2.17;;;21.10;99.90;;;;;;4854770;29;20061;-78
2022/07/02 03:24:51;;;;;;;7.43;2.40;;;21.00;99.90;;;;;;4837951;29;20069;-76
2022/07/02 03:27:18;;;;;;;5.20;1.90;;;21.00;99.90;;;;;;4855398;29;20120;-76
2022/07/02 03:29:43;;;;;;;6.55;1.98;;;21.00;99.90;;;;;;4864809;29;20486;-80
2022/07/02 03:32:10;;;;;;;7.78;2.10;;;21.00;99.90;;;;;;4851991;29;20038;-76
2022/07/02 03:34:36;;;;;;;7.68;2.55;;;21.00;99.90;;;;;;4855465;29;20468;-81
2022/07/02 03:37:02;;;;;;;10.13;2.30;;;21.00;99.90;;;;;;4853027;29;20052;-80
2022/07/02 03:39:27;;;;;;;7.25;1.77;;;20.90;99.90;;;;;;4856763;29;20156;-79
2022/07/02 03:41:55;;;;;;;6.15;2.05;;;20.90;99.90;;;;;;4855139;29;20061;-78
2022/07/02 03:44:20;;;;;;;7.38;2.03;;;21.00;99.90;;;;;;4846265;29;20033;-80
2022/07/02 03:46:46;;;;;;;4.25;1.80;;;21.00;99.90;;;;;;4860064;29;20048;-77
2022/07/02 03:49:12;;;;;;;7.47;2.00;;;20.90;99.90;;;;;;4849411;29;20046;-78
2022/07/02 03:51:38;;;;;;;8.70;2.33;;;20.90;99.90;;;;;;4860275;29;20033;-82
2022/07/02 03:54:04;;;;;;;9.32;1.70;;;20.90;99.90;;;;;;4851749;29;20094;-79
2022/07/02 03:56:30;;;;;;;5.85;1.80;;;21.00;99.90;;;;;;4852409;29;20026;-80
2022/07/02 03:58:56;;;;;;;4.82;2.00;;;21.00;99.90;;;;;;4850304;29;20030;-81
2022/07/02 04:01:22;;;;;;;8.18;2.00;;;21.00;99.90;;;;;;4856735;29;20037;-80
2022/07/02 04:03:47;;;;;;;9.10;2.50;;;21.00;99.90;;;;;;4859677;29;20125;-78
2022/07/02 04:06:13;;;;;;;6.60;2.35;;;21.00;99.90;;;;;;4854166;29;20041;-78
2022/07/02 04:08:39;;;;;;;5.63;2.20;;;21.00;99.90;;;;;;4861203;29;20093;-80
2022/07/02 04:11:05;;;;;;;8.15;2.15;;;21.00;99.90;;;;;;4857630;29;20045;-84
2022/07/02 04:13:31;;;;;;;7.65;2.20;;;21.00;99.90;;;;;;4855127;29;20465;-77
2022/07/02 04:15:56;;;;;;;4.30;2.20;;;21.10;99.90;;;;;;4854425;29;20369;-78
2022/07/02 04:18:23;;;;;;;8.68;2.80;;;21.00;99.90;;;;;;4853892;29;20045;-82
2022/07/02 04:20:49;;;;;;;5.93;2.45;;;21.00;99.90;;;;;;4855957;29;20045;-78
2022/07/02 04:23:15;;;;;;;5.97;2.33;;;21.10;99.90;;;;;;4857976;29;20057;-82
2022/07/02 04:25:41;;;;;;;8.07;2.90;;;21.10;99.90;;;;;;4853789;29;21099;-83
2022/07/02 04:28:08;;;;;;;5.93;2.50;;;21.10;99.90;;;;;;4851518;29;20063;-77
2022/07/02 04:30:34;;;;;;;8.55;2.30;;;21.10;99.90;;;;;;4857948;29;20038;-80
2022/07/02 04:32:59;;;;;;;8.50;2.40;;;21.10;99.90;;;;;;4856242;29;20120;-82
2022/07/02 04:35:25;;;;;;;6.07;2.80;;;21.20;99.90;;;;;;4857673;29;20144;-80
2022/07/02 04:37:52;;;;;;;6.80;2.55;;;21.10;99.90;;;;;;4854980;29;20089;-77
2022/07/02 04:40:18;;;;;;;6.85;2.15;;;21.20;99.90;;;;;;4850359;29;20054;-80
2022/07/02 04:42:46;;;;;;;9.38;2.50;;;21.20;99.90;;;;;;4857659;29;20377;-81
2022/07/02 04:45:12;;;;;;;9.43;2.03;;;21.20;99.90;;;;;;4856255;29;20559;-78
2022/07/02 04:47:38;;;;;;;9.73;2.55;;;21.20;99.90;;;;;;4855162;29;20038;-79
2022/07/02 04:50:04;;;;;;;6.72;2.00;;;21.20;99.90;;;;;;4859341;29;20046;-78
2022/07/02 04:52:30;;;;;;;5.82;2.53;;;21.20;99.90;;;;;;4858305;29;20077;-82
2022/07/02 04:54:57;;;;;;;6.05;2.30;;;21.20;99.90;;;;;;4856315;29;20053;-80
2022/07/02 04:57:23;;;;;;;7.25;2.45;;;21.20;99.90;;;;;;4851371;29;20034;-78
2022/07/02 04:59:48;;;;;;;5.07;2.53;;;21.20;99.90;;;;;;4855689;29;20041;-84
2022/07/02 05:02:14;;;;;;;7.97;2.65;;;21.30;99.90;;;;;;4858469;29;20042;-79
2022/07/02 05:04:40;;;;;;;5.95;2.60;;;21.30;99.90;;;;;;4859335;29;20033;-78
2022/07/02 05:07:06;;;;;;;9.50;3.22;;;21.30;99.90;;;;;;4854271;29;20545;-78
2022/07/02 05:09:32;;;;;;;6.85;2.72;;;21.30;99.90;;;;;;4855290;29;20116;-83
2022/07/02 05:11:58;;;;;;;5.00;2.50;;;21.30;99.90;;;;;;4855759;29;20033;-79
2022/07/02 05:14:24;;;;;;;6.25;3.10;;;21.30;99.90;;;;;;4856671;29;20034;-79
2022/07/02 05:16:50;;;;;;;9.43;2.53;;;21.40;99.90;;;;;;4853567;29;20124;-84
2022/07/02 05:19:15;;;;;;;8.75;2.50;;;21.40;99.90;;;;;;4857575;29;20046;-79
2022/07/02 05:21:43;;;;;;;7.03;2.80;;;21.40;99.90;;;;;;4858035;29;20033;-77
2022/07/02 05:24:10;;;;;;;6.43;2.92;;;21.40;99.90;;;;;;4854347;29;20895;-77
2022/07/02 05:26:36;;;;;;;6.93;2.75;;;21.40;99.90;;;;;;4846942;29;20064;-77
2022/07/02 05:29:03;;;;;;;8.43;3.50;;;21.40;99.90;;;;;;4857070;29;20038;-81
2022/07/02 05:31:28;;;;;;;5.97;2.92;;;21.50;99.90;;;;;;4854925;29;20048;-77
2022/07/02 05:33:54;;;;;;;7.25;3.90;;;21.60;99.90;;;;;;4859316;29;20566;-78
2022/07/02 05:36:20;;;;;;;13.13;4.25;;;21.70;99.90;;;;;;4859961;29;20045;-84
2022/07/02 05:38:46;;;;;;;8.93;3.78;;;21.80;99.90;;;;;;4855420;29;20478;-78
2022/07/02 05:41:11;;;;;;;7.88;4.03;;;21.90;99.90;;;;;;4856215;29;20050;-77
2022/07/02 05:43:37;;;;;;;6.50;3.65;;;22.00;99.90;;;;;;4852035;29;20046;-81
2022/07/02 05:46:03;;;;;;;8.73;3.75;;;22.00;99.90;;;;;;4857783;29;20027;-80
2022/07/02 05:48:29;;;;;;;6.35;3.90;;;22.10;99.90;;;;;;4858137;29;20038;-79
2022/07/02 05:50:55;;;;;;;7.20;4.78;;;22.20;99.90;;;;;;4855287;29;20064;-79
2022/07/02 05:53:22;;;;;;;8.55;4.03;;;22.30;99.90;;;;;;4857517;29;20044;-83
2022/07/02 05:55:48;;;;;;;8.38;4.43;;;22.40;99.90;;;;;;4854476;29;20030;-77
2022/07/02 05:58:15;;;;;;;10.07;4.05;;;22.50;99.90;;;;;;4851717;29;20105;-81
2022/07/02 06:00:41;;;;;;;8.93;4.50;;;22.50;99.90;;;;;;4854968;29;20037;-77
2022/07/02 06:03:06;;;;;;;7.10;4.28;;;22.60;99.90;;;;;;4854048;29;20063;-77
2022/07/02 06:08:16;;;;;;;6.78;4.60;;;22.80;99.90;;;;;;4853353;29;20040;-78
2022/07/02 06:10:43;;;;;;;8.88;4.80;;;22.90;99.90;;;;;;4857505;29;20557;-77
2022/07/02 06:13:09;;;;;;;8.35;4.78;;;23.00;99.90;;;;;;4859089;29;20041;-82
2022/07/02 06:15:35;;;;;;;8.52;5.50;;;23.00;99.90;;;;;;4859160;29;20067;-78
2022/07/02 06:18:02;;;;;;;10.13;5.38;;;23.10;99.90;;;;;;4856337;29;20033;-76
2022/07/02 06:20:28;;;;;;;8.23;5.45;;;23.20;99.90;;;;;;4859800;29;20044;-83
2022/07/02 06:22:57;;;;;;;10.50;5.43;;;23.30;99.90;;;;;;4860627;29;20041;-77
2022/07/02 06:25:25;;;;;;;12.10;5.55;;;23.40;99.90;;;;;;4853262;29;20048;-77
2022/07/02 06:27:51;;;;;;;11.20;5.53;;;23.40;99.90;;;;;;4856690;29;20078;-80
2022/07/02 06:30:18;;;;;;;11.85;5.80;;;23.50;99.90;;;;;;4845606;29;20947;-77
2022/07/02 06:32:44;;;;;;;8.13;5.07;;;23.60;99.90;;;;;;4856379;29;20042;-83
2022/07/02 06:35:10;;;;;;;10.68;6.22;;;23.70;99.90;;;;;;4857790;29;20069;-78
2022/07/02 06:37:35;;;;;;;9.75;5.65;;;23.70;99.90;;;;;;4859008;29;20151;-78
2022/07/02 06:40:04;;;;;;;11.23;6.30;;;23.70;99.90;;;;;;4855836;29;20057;-78
2022/07/02 06:42:30;;;;;;;11.30;6.47;;;23.70;99.90;;;;;;4842754;29;20041;-78
2022/07/02 06:44:58;;;;;;;12.15;6.80;;;23.80;99.90;;;;;;4857549;29;20033;-81
2022/07/02 06:47:26;;;;;;;9.02;7.30;;;23.80;99.90;;;;;;4853056;29;20037;-77
2022/07/02 06:49:54;;;;;;;11.77;7.03;;;23.90;99.90;;;;;;4855163;29;20602;-77
2022/07/02 06:52:21;;;;;;;11.45;6.97;;;23.90;99.90;;;;;;4859732;29;20037;-80
2022/07/02 06:54:47;;;;;;;11.25;6.57;;;23.90;99.90;;;;;;4860367;29;20114;-78
2022/07/02 06:57:12;;;;;;;9.55;6.25;;;23.90;99.90;;;;;;4856586;29;20430;-77
2022/07/02 06:59:40;;;;;;;8.98;6.65;;;24.00;99.90;;;;;;4855686;29;20048;-82
2022/07/02 07:02:06;;;;;;;10.50;6.03;;;24.10;99.90;;;;;;4855759;29;20609;-78
2022/07/02 07:04:33;;;;;;;10.07;6.13;;;24.10;99.90;;;;;;4854772;29;20133;-81
2022/07/02 07:07:03;;;;;;;11.85;6.50;;;24.20;99.90;;;;;;4855500;29;20041;-78
2022/07/02 07:09:29;;;;;;;11.60;6.53;;;24.20;99.90;;;;;;4860686;29;20048;-77
2022/07/02 07:11:55;;;;;;;11.25;6.20;;;24.30;99.90;;;;;;4843631;29;20057;-80
2022/07/02 07:14:21;;;;;;;8.98;6.10;;;24.30;99.90;;;;;;4863008;29;20038;-78
2022/07/02 07:16:47;;;;;;;10.15;6.72;;;24.30;99.90;;;;;;4860684;29;20071;-78
2022/07/02 07:19:13;;;;;;;11.07;6.95;;;24.50;99.90;;;;;;4855664;29;20045;-80
2022/07/02 07:21:42;;;;;;;13.20;6.43;;;24.50;99.90;;;;;;4853466;29;20038;-79
2022/07/02 07:24:09;;;;;;;13.10;6.72;;;24.50;99.90;;;;;;4857586;29;20049;-77
2022/07/02 07:26:36;;;;;;;11.80;6.47;;;24.50;99.90;;;;;;4853640;29;20030;-80
2022/07/02 07:29:05;;;;;;;9.15;6.50;;;24.50;99.90;;;;;;4860258;29;20547;-78
2022/07/02 07:31:33;;;;;;;10.38;6.53;;;24.60;99.90;;;;;;4859855;29;20043;-77
2022/07/02 07:33:59;;;;;;;11.38;6.68;;;24.60;99.90;;;;;;4853215;29;20478;-79
2022/07/02 07:36:28;;;;;;;10.23;6.47;;;24.80;99.90;;;;;;4860068;29;20037;-77
2022/07/02 07:38:55;;;;;;;11.43;6.13;;;24.80;99.90;;;;;;4853658;29;20061;-79
2022/07/02 07:41:22;;;;;;;9.60;6.78;;;24.70;99.90;;;;;;4857228;29;20037;-84
2022/07/02 07:43:48;;;;;;;12.10;7.25;;;24.70;99.90;;;;;;4851185;29;20070;-78
2022/07/02 07:46:14;;;;;;;12.90;6.15;;;24.80;99.90;;;;;;4857057;29;20386;-80
2022/07/02 07:48:40;;;;;;;13.82;6.32;;;25.00;99.90;;;;;;4853695;29;20041;-79
2022/07/02 07:51:06;;;;;;;12.02;5.50;;;25.00;99.90;;;;;;4853434;29;20019;-78
2022/07/02 07:53:32;;;;;;;8.73;4.85;;;25.10;99.90;;;;;;4861072;29;20033;-79
2022/07/02 07:55:58;;;;;;;10.35;5.90;;;25.00;99.90;;;;;;4848686;29;20113;-78
2022/07/02 07:58:24;;;;;;;12.40;7.50;;;25.00;99.90;;;;;;4848572;29;20034;-76
2022/07/02 08:00:50;;;;;;;14.55;7.50;;;25.10;99.90;;;;;;4853705;29;20040;-77
2022/07/02 08:03:20;;;;;;;11.00;6.03;;;25.20;99.90;;;;;;4853869;29;20053;-80
2022/07/02 08:05:47;;;;;;;9.23;6.53;;;25.40;99.90;;;;;;4857001;29;20182;-80
2022/07/02 08:08:14;;;;;;;12.32;6.88;;;25.50;99.90;;;;;;4851490;29;20045;-76
2022/07/02 08:10:41;;;;;;;8.38;5.90;;;25.40;99.90;;;;;;4853195;29;20072;-80
2022/07/02 08:13:07;;;;;;;10.15;5.93;;;25.40;99.90;;;;;;4837098;29;20067;-77
2022/07/02 08:15:34;;;;;;;8.98;5.25;;;25.40;99.90;;;;;;4851007;29;20390;-78
2022/07/02 08:18:00;;;;;;;8.32;4.88;;;25.50;99.90;;;;;;4841420;29;20036;-77
2022/07/02 08:20:26;;;;;;;14.77;5.53;;;25.50;99.90;;;;;;4850962;29;20049;-76
2022/07/02 08:22:52;;;;;;;12.27;5.47;;;25.60;99.90;;;;;;4844026;29;20046;-77
2022/07/02 08:25:18;;;;;;;9.30;5.80;;;25.70;99.90;;;;;;4860596;29;20054;-81
2022/07/02 08:27:45;;;;;;;10.68;5.53;;;25.70;99.90;;;;;;4855782;29;20037;-77
2022/07/02 08:30:12;;;;;;;12.00;5.97;;;25.80;99.90;;;;;;4841096;29;20098;-76
2022/07/02 08:32:38;;;;;;;9.20;5.85;;;25.80;99.90;;;;;;4847500;29;20479;-82
2022/07/02 08:35:07;;;;;;;10.95;6.22;;;25.90;99.90;;;;;;4839987;29;20078;-77
2022/07/02 08:37:33;;;;;;;10.57;5.50;;;26.00;99.90;;;;;;4844348;29;21358;-82
2022/07/02 08:39:58;;;;;;;7.22;4.82;;;26.10;99.90;;;;;;4844787;29;20045;-80
2022/07/02 08:52:49;;;;;;;8.75;4.45;;;26.40;99.90;;;;;;4834459;29;20112;-77
2022/07/02 08:55:17;;;;;;;9.13;3.75;;;26.50;99.90;;;;;;4853158;29;20042;-80
2022/07/02 08:57:45;;;;;;;7.10;3.90;;;26.50;99.90;;;;;;4850028;29;20056;-78
2022/07/02 09:00:12;;;;;;;6.20;3.70;;;26.50;99.90;;;;;;4837405;29;20144;-75
2022/07/02 09:02:38;;;;;;;5.22;3.20;;;26.60;99.90;;;;;;4841106;29;20389;-77
2022/07/02 09:05:05;;;;;;;8.77;3.85;;;26.60;99.90;;;;;;4840970;29;20083;-75
2022/07/02 09:07:32;;;;;;;9.07;3.80;;;26.80;99.90;;;;;;4840822;29;20042;-76
2022/07/02 09:10:02;;;;;;;8.60;4.35;;;26.80;99.90;;;;;;4841063;29;20041;-78
2022/07/02 09:12:28;;;;;;;6.97;4.07;;;27.00;99.90;;;;;;4851790;29;20034;-79
2022/07/02 09:14:55;;;;;;;7.40;4.20;;;27.00;99.90;;;;;;4851645;29;20406;-77
2022/07/02 09:17:21;;;;;;;10.77;4.35;;;26.80;99.90;;;;;;4849302;29;20121;-78
2022/07/02 09:19:47;;;;;;;8.15;3.83;;;27.00;99.90;;;;;;4855313;29;20037;-82
2022/07/02 09:22:13;;;;;;;6.03;3.45;;;27.10;99.90;;;;;;4853342;29;20121;-77
2022/07/02 09:24:42;;;;;;;7.60;2.90;;;27.10;99.90;;;;;;4862589;29;20053;-76
2022/07/02 09:27:13;;;;;;;4.82;2.65;;;27.30;99.10;;;;;;4846967;29;20400;-76
2022/07/02 09:29:42;;;;;;;6.23;2.50;;;27.50;98.80;;;;;;4853220;29;20045;-80
2022/07/02 09:32:08;;;;;;;5.97;2.60;;;27.50;99.40;;;;;;4850007;29;20038;-78
2022/07/02 09:34:35;;;;;;;5.97;2.60;;;27.20;99.00;;;;;;4851360;29;20042;-78
2022/07/02 09:37:14;;;;;;;6.20;2.70;;;26.90;99.60;;;;;;4858515;29;20080;-82
2022/07/02 09:39:43;;;;;;;4.10;2.58;;;27.00;99.50;;;;;;4848739;29;20087;-77
2022/07/02 09:42:23;;;;;;;8.00;3.40;;;27.10;99.90;;;;;;4841509;29;20045;-78
2022/07/02 09:44:49;;;;;;;6.22;3.03;;;27.20;99.90;;;;;;4867343;29;20534;-82
2022/07/02 09:47:15;;;;;;;8.25;2.72;;;27.00;99.90;;;;;;4855059;29;20053;-79
2022/07/02 09:49:48;;;;;;;9.38;2.65;;;27.00;99.90;;;;;;4856180;29;20125;-77
2022/07/02 09:52:18;;;;;;;8.00;3.13;;;27.40;99.90;;;;;;4858480;29;20117;-81
2022/07/02 09:54:45;;;;;;;6.43;2.58;;;27.50;99.90;;;;;;4854583;29;20030;-77
2022/07/02 09:57:13;;;;;;;8.55;2.80;;;27.70;99.90;;;;;;4843721;29;20101;-78
2022/07/02 09:59:40;;;;;;;9.30;3.20;;;27.70;99.90;;;;;;4858255;29;20045;-78
2022/07/02 10:02:21;;;;;;;8.07;3.60;;;27.80;99.90;;;;;;4854984;29;20048;-78
2022/07/02 10:04:55;;;;;;;7.75;3.47;;;28.00;99.90;;;;;;4837551;29;20042;-79
2022/07/02 10:07:24;;;;;;;6.60;3.33;;;28.00;99.90;;;;;;4869873;29;20053;-76
2022/07/02 10:09:50;;;;;;;6.93;3.08;;;28.00;99.90;;;;;;4855183;29;20041;-76
2022/07/02 10:12:18;;;;;;;11.00;2.92;;;28.10;99.90;;;;;;4850981;29;20038;-77
2022/07/02 10:14:46;;;;;;;6.47;2.88;;;28.10;99.90;;;;;;4853424;29;20057;-76
2022/07/02 10:17:13;;;;;;;6.38;2.83;;;27.90;99.90;;;;;;4854688;29;20048;-76
2022/07/02 10:19:40;;;;;;;8.05;3.33;;;28.10;99.90;;;;;;4855220;29;20042;-76
2022/07/02 10:22:07;;;;;;;6.10;2.80;;;28.20;99.90;;;;;;4856995;29;20092;-79
2022/07/02 10:24:34;;;;;;;5.13;3.28;;;28.30;99.90;;;;;;4858497;29;20042;-75
2022/07/02 10:27:00;;;;;;;7.28;3.22;;;28.00;99.90;;;;;;4855431;29;20571;-80
2022/07/02 10:29:28;;;;;;;8.20;2.72;;;27.70;99.90;;;;;;4856213;29;20067;-77
2022/07/02 10:32:06;;;;;;;6.57;2.72;;;27.70;99.90;;;;;;4858429;29;20482;-80
2022/07/02 10:34:51;;;;;;;6.35;3.10;;;28.10;99.90;;;;;;4854692;29;20186;-78
2022/07/02 10:37:17;;;;;;;6.57;2.60;;;28.10;99.90;;;;;;4850836;29;20042;-77
2022/07/02 10:39:44;;;;;;;5.07;2.70;;;28.50;99.90;;;;;;4858208;29;20042;-78
2022/07/02 10:42:10;;;;;;;6.57;2.47;;;28.80;99.40;;;;;;4853358;29;20048;-76
2022/07/02 10:44:40;;;;;;;5.07;2.42;;;28.80;99.40;;;;;;4854399;29;20038;-76
2022/07/02 10:47:26;;;;;;;7.60;2.63;;;28.40;99.90;;;;;;4850596;29;20037;-82
2022/07/02 10:50:01;;;;;;;7.25;2.90;;;28.60;99.50;;;;;;4850449;29;20038;-77
2022/07/02 10:52:53;;;;;;;4.78;2.53;;;28.60;99.00;;;;;;4852434;29;20497;-78
2022/07/02 10:55:29;;;;;;;5.55;2.58;;;28.80;98.00;;;;;;4852855;29;20034;-77
2022/07/02 10:58:00;;;;;;;7.75;2.47;;;28.80;98.80;;;;;;4855435;29;20061;-77
2022/07/02 11:00:39;;;;;;;5.85;2.70;;;29.10;98.60;;;;;;4856650;29;20070;-79
2022/07/02 11:03:18;;;;;;;6.60;3.00;;;29.30;98.20;;;;;;4853917;29;20034;-78
2022/07/02 11:05:55;;;;;;;6.15;2.97;;;29.40;97.90;;;;;;4855370;29;20061;-77
2022/07/02 11:08:41;;;;;;;7.10;3.00;;;29.10;98.50;;;;;;4851342;29;20038;-79
2022/07/02 11:11:11;;;;;;;8.52;2.97;;;28.90;98.90;;;;;;4850653;29;20033;-76
2022/07/02 11:14:00;;;;;;;7.85;3.08;;;29.00;98.90;;;;;;4853863;29;20085;-77
2022/07/02 11:16:37;;;;;;;9.07;3.60;;;29.20;98.30;;;;;;4848579;29;20048;-76
2022/07/02 11:19:03;;;;;;;6.38;2.70;;;29.60;98.60;;;;;;4859838;29;20037;-75
2022/07/02 11:21:29;;;;;;;8.73;3.25;;;29.90;98.60;;;;;;4851498;29;20040;-78
2022/07/02 11:23:56;;;;;;;6.50;2.83;;;29.80;98.40;;;;;;4850332;29;20493;-79
2022/07/02 11:26:27;;;;;;;7.13;2.70;;;29.80;98.50;;;;;;4851954;29;20116;-77
2022/07/02 11:28:54;;;;;;;6.32;2.85;;;29.40;99.30;;;;;;4865895;29;20062;-78
2022/07/02 11:31:22;;;;;;;5.68;2.72;;;29.70;99.20;;;;;;4860575;29;20060;-76
2022/07/02 11:33:50;;;;;;;6.43;2.88;;;30.10;98.70;;;;;;4856076;29;20044;-76
2022/07/02 11:36:17;;;;;;;5.60;3.03;;;29.90;98.60;;;;;;4858042;29;20033;-79
2022/07/02 11:38:45;;;;;;;8.48;3.47;;;30.20;98.30;;;;;;4853302;29;20029;-76
2022/07/02 11:41:20;;;;;;;7.30;2.90;;;30.60;97.80;;;;;;4851120;29;20568;-77
2022/07/02 11:43:51;;;;;;;6.43;2.58;;;30.90;97.60;;;;;;4854891;29;20048;-75
2022/07/02 11:46:20;;;;;;;7.47;2.75;;;31.30;97.10;;;;;;4857988;29;20124;-78
2022/07/02 11:48:48;;;;;;;5.85;2.38;;;31.30;96.60;;;;;;4860359;29;20123;-77
2022/07/02 11:51:14;;;;;;;8.57;2.90;;;31.30;96.50;;;;;;4857824;29;20060;-79
2022/07/02 11:53:53;;;;;;;7.28;3.30;;;31.40;96.20;;;;;;4862497;29;20148;-75
2022/07/02 11:56:19;;;;;;;7.05;2.97;;;31.30;95.80;;;;;;4861887;29;20049;-78
2022/07/02 11:58:48;;;;;;;6.10;2.88;;;31.00;95.90;;;;;;4856549;29;20037;-79
2022/07/02 12:01:27;;;;;;;4.65;2.75;;;31.00;96.00;;;;;;4852370;29;20042;-78
2022/07/02 12:03:57;;;;;;;7.35;2.38;;;31.40;95.80;;;;;;4856743;29;20033;-78
2022/07/02 12:06:26;;;;;;;8.38;2.65;;;30.70;96.80;;;;;;4856664;29;20049;-78
2022/07/02 12:09:06;;;;;;;6.50;2.70;;;31.10;97.00;;;;;;4859342;29;20033;-77
2022/07/02 12:11:35;;;;;;;6.15;2.10;;;31.20;96.40;;;;;;4839640;29;20576;-82
2022/07/02 12:14:01;;;;;;;4.55;2.30;;;31.30;96.40;;;;;;4852791;29;20136;-77
2022/07/02 12:16:28;;;;;;;5.32;2.80;;;31.60;95.70;;;;;;4848687;29;20049;-82
2022/07/02 12:19:08;;;;;;;7.25;3.47;;;32.00;95.40;;;;;;4852735;29;20062;-77
2022/07/02 12:21:43;;;;;;;4.15;2.53;;;32.00;95.20;;;;;;4850709;29;20125;-80
2022/07/02 12:24:28;;;;;;;5.43;2.30;;;31.70;95.30;;;;;;4845997;29;20080;-77
2022/07/02 12:27:02;;;;;;;9.82;2.22;;;32.00;95.20;;;;;;4852372;29;20390;-77
2022/07/02 12:32:19;;;;;;;4.95;2.63;;;32.50;94.40;;;;;;4856143;29;20105;-78
2022/07/02 12:34:47;;;;;;;7.28;2.08;;;31.40;94.70;;;;;;4856491;29;20381;-81
2022/07/02 12:37:25;;;;;;;5.57;2.10;;;31.20;94.90;;;;;;4858458;29;20093;-76
2022/07/02 12:39:57;;;;;;;7.68;2.15;;;30.60;95.20;;;;;;4848052;29;20061;-77
2022/07/02 12:42:24;;;;;;;5.57;1.90;;;31.30;95.10;;;;;;4853655;29;20061;-76
2022/07/02 12:45:04;;;;;;;4.15;2.13;;;31.70;95.00;;;;;;4849071;29;20034;-78
2022/07/02 12:47:38;;;;;;;5.18;2.20;;;31.90;95.00;;;;;;4848070;29;20033;-74
2022/07/02 12:50:04;;;;;;;4.95;2.10;;;31.90;94.90;;;;;;4847431;29;20041;-75
2022/07/02 12:52:43;;;;;;;5.50;2.28;;;31.70;94.40;;;;;;4851311;29;20433;-77
2022/07/02 12:55:31;;;;;;;4.88;2.20;;;31.70;94.80;;;;;;4846141;29;20062;-77
2022/07/02 12:58:00;;;;;;;7.47;2.40;;;31.10;94.90;;;;;;4852051;29;20042;-75
2022/07/02 13:00:27;;;;;;;6.50;2.10;;;31.10;94.90;;;;;;4849814;29;20056;-77
2022/07/02 13:03:19;;;;;;;4.80;2.15;;;31.10;94.60;;;;;;4855484;29;20090;-79
2022/07/02 13:05:47;;;;;;;4.05;2.45;;;30.50;94.80;;;;;;4849842;29;20090;-76
2022/07/02 13:08:14;;;;;;;4.70;1.85;;;30.80;94.60;;;;;;4852656;29;20036;-77